Time;durP1;ratioP1;P1;durP2;ratioP2;P2;SDS_P1;SDS_P2;PMS_P1;PMS_P2;Temp;Humidity;BMP_temperature;BMP_pressure;BME280_temperature;BME280_humidity;BME280_pressure;Samples;Min_cycle;Max_cycle;Signal;HPM_P1;HPM_P2
2022/05/04 00:00:06;;;;;;;36.90;14.47;;;;;;;-0.28;74.83;100031.67;1723242;81;20963;-62
2022/05/04 00:02:36;;;;;;;31.23;13.65;;;;;;;-0.29;74.76;100028.66;1727685;81;20943;-62
2022/05/04 00:05:03;;;;;;;35.20;13.55;;;;;;;-0.32;74.76;100028.66;1704421;81;21014;-62
2022/05/04 00:07:30;;;;;;;30.05;13.00;;;;;;;-0.36;74.75;100029.52;1720526;81;28174;-62
2022/05/04 00:09:57;;;;;;;30.40;13.50;;;;;;;-0.37;74.94;100029.07;1726099;81;20999;-62
2022/05/04 00:12:25;;;;;;;36.08;12.58;;;;;;;-0.38;74.98;100026.09;1693817;83;20976;-62
2022/05/04 00:14:52;;;;;;;24.47;11.48;;;;;;;-0.40;75.04;100031.62;1689134;83;21088;-62
2022/05/04 00:17:19;;;;;;;22.30;10.68;;;;;;;-0.41;75.01;100029.08;1680643;83;20939;-62
2022/05/04 00:19:46;;;;;;;32.87;11.60;;;;;;;-0.44;75.09;100037.63;1717627;82;20978;-62
2022/05/04 00:22:18;;;;;;;18.30;9.55;;;;;;;-0.47;75.08;100032.48;1705908;81;20883;-62
2022/05/04 00:24:45;;;;;;;27.17;10.58;;;;;;;-0.51;75.12;100037.16;1722752;82;20934;-62
2022/05/04 00:27:14;;;;;;;22.10;9.38;;;;;;;-0.55;75.20;100030.33;1719285;81;21446;-62
2022/05/04 00:29:44;;;;;;;21.07;9.20;;;;;;;-0.51;75.58;100035.45;1706508;83;21077;-62
2022/05/04 00:32:18;;;;;;;22.58;9.30;;;;;;;-0.44;75.68;100036.34;1701203;81;20997;-62
2022/05/04 00:34:47;;;;;;;20.62;10.80;;;;;;;-0.38;75.89;100038.91;1680972;82;38286;-62
2022/05/04 00:37:14;;;;;;;19.95;8.78;;;;;;;-0.24;75.78;100042.36;1724705;81;20977;-63
2022/05/04 00:39:41;;;;;;;19.02;9.15;;;;;;;-0.15;75.84;100043.23;1726840;81;21158;-62
2022/05/04 00:42:17;;;;;;;17.63;8.77;;;;;;;-0.11;75.95;100039.80;1725408;81;20930;-62
2022/05/04 00:44:47;;;;;;;16.03;8.73;;;;;;;-0.14;75.67;100042.36;1683639;83;20985;-62
2022/05/04 00:47:14;;;;;;;20.20;8.88;;;;;;;-0.16;75.72;100045.38;1695214;82;20918;-62
2022/05/04 00:49:43;;;;;;;19.50;8.25;;;;;;;-0.26;75.66;100046.63;1700443;83;21523;-62
2022/05/04 00:52:14;;;;;;;13.70;6.72;;;;;;;-0.30;75.65;100046.20;1703740;82;22209;-62
2022/05/04 00:54:43;;;;;;;14.05;6.15;;;;;;;-0.33;75.82;100037.22;1692204;82;20956;-62
2022/05/04 00:57:12;;;;;;;17.30;7.00;;;;;;;-0.28;76.01;100041.94;1717188;82;20976;-62
2022/05/04 00:59:39;;;;;;;12.45;5.72;;;;;;;-0.26;76.09;100042.77;1716223;82;20977;-62
2022/05/04 01:02:06;;;;;;;10.90;5.33;;;;;;;-0.21;76.24;100041.95;1715091;82;20950;-62
2022/05/04 01:04:32;;;;;;;14.03;6.60;;;;;;;-0.19;76.15;100049.23;1705047;82;21150;-62
2022/05/04 01:07:00;;;;;;;11.38;5.97;;;;;;;-0.23;76.00;100049.19;1697616;81;21678;-62
2022/05/04 01:09:26;;;;;;;13.65;6.03;;;;;;;-0.27;75.98;100042.36;1705201;82;27075;-62
2022/05/04 01:11:55;;;;;;;18.87;7.73;;;;;;;-0.30;76.05;100046.20;1719333;81;21036;-62
2022/05/04 01:14:21;;;;;;;12.63;6.15;;;;;;;-0.26;76.28;100046.63;1719216;82;21657;-62
2022/05/04 01:16:48;;;;;;;13.78;6.05;;;;;;;-0.20;76.28;100051.34;1738692;81;21273;-62
2022/05/04 01:19:16;;;;;;;11.53;6.30;;;;;;;-0.17;76.35;100049.63;1719270;82;20983;-62
2022/05/04 01:21:42;;;;;;;;;;;;;;;-0.13;76.33;100055.22;1719910;81;20905;-62
2022/05/04 01:24:10;;;;;;;10.17;6.10;;;;;;;-0.11;76.39;100048.38;1731048;82;20131;-62
2022/05/04 01:26:36;;;;;;;;;;;;;;;-0.09;76.33;100057.34;1720161;82;20951;-62
2022/05/04 01:29:04;;;;;;;10.93;5.37;;;;;;;-0.07;76.42;100055.22;1714154;82;21340;-62
2022/05/04 01:31:30;;;;;;;15.43;5.92;;;;;;;-0.06;76.37;100053.50;1712984;81;21528;-62
2022/05/04 01:33:57;;;;;;;11.22;5.58;;;;;;;-0.07;76.26;100062.06;1705951;82;20993;-62
2022/05/04 01:36:24;;;;;;;14.47;5.47;;;;;;;-0.07;76.21;100058.22;1722034;81;20936;-62
2022/05/04 01:38:50;;;;;;;10.40;4.90;;;;;;;-0.08;76.20;100064.22;1730343;81;20967;-62
2022/05/04 01:44:02;;;;;;;13.48;4.90;;;;;;;-0.10;76.21;100068.48;1731398;81;21009;-62
2022/05/04 01:46:29;;;;;;;7.07;4.17;;;;;;;-0.12;76.37;100064.62;1721052;82;21655;-61
2022/05/04 01:48:56;;;;;;;10.60;4.17;;;;;;;-0.09;76.52;100068.90;1727299;81;20955;-62
2022/05/04 01:51:22;;;;;;;6.83;3.22;;;;;;;-0.05;76.37;100066.78;1712095;81;20959;-62
2022/05/04 01:53:49;;;;;;;6.23;3.47;;;;;;;-0.01;76.56;100065.92;1715527;81;21954;-62
2022/05/04 01:56:16;;;;;;;7.53;3.47;;;;;;;0.05;76.50;100064.64;1726599;81;20980;-62
2022/05/04 01:58:42;;;;;;;5.50;3.20;;;;;;;0.08;76.45;100071.05;1713175;81;20940;-63
2022/05/04 02:01:09;;;;;;;8.55;3.55;;;;;;;0.12;76.48;100066.37;1707020;82;21102;-62
2022/05/04 02:03:38;;;;;;;6.67;3.08;;;;;;;0.15;76.33;100073.22;1718615;81;21059;-62
2022/05/04 02:06:05;;;;;;;9.00;4.30;;;;;;;0.16;76.31;100064.22;1704971;83;21302;-63
2022/05/04 02:08:33;;;;;;;8.00;3.40;;;;;;;0.17;76.29;100064.66;1718612;82;20890;-62
2022/05/04 02:11:01;;;;;;;9.95;4.37;;;;;;;0.16;76.22;100060.36;1727060;81;21498;-62
2022/05/04 02:13:27;;;;;;;7.70;4.25;;;;;;;0.13;76.13;100065.50;1721967;82;20968;-62
2022/05/04 02:15:54;;;;;;;9.08;4.05;;;;;;;0.10;76.19;100069.78;1697049;82;20979;-62
2022/05/04 02:18:21;;;;;;;8.25;4.55;;;;;;;0.11;76.29;100064.66;1715258;81;21058;-62
2022/05/04 02:20:47;;;;;;;10.35;5.22;;;;;;;0.15;76.37;100072.78;1710060;82;20975;-62
2022/05/04 02:23:14;;;;;;;8.95;4.58;;;;;;;0.20;76.31;100068.52;1719074;82;20967;-62
2022/05/04 02:25:41;;;;;;;6.67;3.85;;;;;;;0.26;76.29;100075.80;1712939;81;20880;-62
2022/05/04 02:28:07;;;;;;;10.60;3.58;;;;;;;0.36;76.37;100067.22;1724323;81;21608;-62
2022/05/04 02:30:34;;;;;;;5.30;2.57;;;;;;;0.46;76.38;100076.64;1710791;82;22266;-62
2022/05/04 02:33:01;;;;;;;4.97;2.13;;;;;;;0.56;76.29;100075.79;1711114;81;21072;-62
2022/05/04 02:38:12;;;;;;;3.67;2.02;;;;;;;0.74;76.15;100074.05;1701864;82;20947;-62
2022/05/04 02:40:39;;;;;;;2.35;1.60;;;;;;;0.83;76.10;100072.30;1694877;83;20982;-62
2022/05/04 02:43:07;;;;;;;3.40;1.93;;;;;;;0.91;76.12;100076.15;1684454;83;21042;-62
2022/05/04 02:45:34;;;;;;;4.67;2.10;;;;;;;0.97;76.07;100074.84;1718091;81;20999;-61
2022/05/04 02:48:01;;;;;;;4.50;2.02;;;;;;;0.98;75.89;100073.12;1712684;83;21504;-61
2022/05/04 02:50:28;;;;;;;11.57;1.70;;;;;;;0.95;75.76;100066.27;1689811;83;21432;-61
2022/05/04 02:52:54;;;;;;;7.00;2.35;;;;;;;0.95;75.81;100079.12;1735541;81;20977;-62
2022/05/04 02:55:21;;;;;;;5.28;2.58;;;;;;;0.95;75.78;100074.41;1729262;81;21065;-61
2022/05/04 02:57:47;;;;;;;3.98;2.12;;;;;;;0.92;75.69;100076.56;1719478;82;20974;-61
2022/05/04 03:00:15;;;;;;;6.10;2.70;;;;;;;0.87;75.64;100078.31;1724699;82;20967;-62
2022/05/04 03:02:41;;;;;;;;;;;;;;;0.82;75.67;100082.60;1720539;82;20928;-61
2022/05/04 03:05:10;;;;;;;4.47;2.03;;;;;;;0.73;75.84;100080.91;1695409;82;20290;-61
2022/05/04 03:07:37;;;;;;;3.42;2.05;;;;;;;0.63;76.14;100089.04;1722844;82;21088;-63
2022/05/04 03:10:06;;;;;;;6.87;2.65;;;;;;;0.62;76.22;100086.05;1673834;83;21085;-61
2022/05/04 03:12:32;;;;;;;8.25;2.15;;;;;;;0.64;76.41;100089.48;1673223;83;21662;-61
2022/05/04 03:14:59;;;;;;;6.53;2.57;;;;;;;0.74;76.54;100088.18;1716670;81;20937;-61
2022/05/04 03:17:26;;;;;;;10.25;2.10;;;;;;;0.84;76.42;100087.28;1723172;82;20935;-61
2022/05/04 03:19:54;;;;;;;5.55;2.27;;;;;;;0.94;76.29;100087.70;1716321;81;22076;-61
2022/05/04 03:22:20;;;;;;;;;;;;;;;1.04;76.18;100083.41;1729443;82;21461;-61
2022/05/04 03:24:47;;;;;;;5.33;2.17;;;;;;;1.14;76.10;100089.38;1704950;82;20137;-61
2022/05/04 03:27:14;;;;;;;2.93;1.77;;;;;;;1.27;76.21;100093.63;1725707;82;20964;-62
2022/05/04 03:29:40;;;;;;;5.05;1.75;;;;;;;1.76;76.69;100085.66;1719689;81;21012;-62
2022/05/04 03:32:08;;;;;;;5.10;2.33;;;;;;;2.55;76.40;100091.11;1715705;81;21947;-62
2022/05/04 03:34:35;;;;;;;5.10;2.27;;;;;;;3.08;75.89;100085.86;1714126;81;21403;-62
2022/05/04 03:37:02;;;;;;;5.05;2.45;;;;;;;3.61;75.71;100088.24;1712280;82;21495;-62
2022/05/04 03:39:29;;;;;;;3.52;2.30;;;;;;;4.45;75.63;100088.73;1717317;81;21019;-62
2022/05/04 03:41:56;;;;;;;;;;;;;;;5.22;75.26;100083.50;1717770;81;20955;-62
2022/05/04 03:44:23;;;;;;;4.28;2.37;;;;;;;6.08;75.42;100088.16;1705721;83;21082;-62
2022/05/04 03:46:52;;;;;;;7.67;2.95;;;;;;;6.90;75.12;100086.14;1728123;81;20913;-62
2022/05/04 03:49:22;;;;;;;3.80;1.95;;;;;;;7.64;74.48;100086.67;1710804;83;20879;-62
2022/05/04 03:51:50;;;;;;;3.47;2.00;;;;;;;8.33;74.26;100082.42;1714527;82;20985;-62
2022/05/04 03:54:17;;;;;;;5.55;2.58;;;;;;;9.09;73.80;100088.97;1707875;83;21053;-62
2022/05/04 03:56:43;;;;;;;3.35;2.12;;;;;;;9.55;73.07;100082.10;1713690;83;21570;-62
2022/05/04 03:59:10;;;;;;;4.27;2.67;;;;;;;10.00;72.82;100083.86;1719918;81;20922;-63
2022/05/04 04:01:37;;;;;;;5.30;2.57;;;;;;;10.46;72.45;100085.95;1717978;83;20932;-63
2022/05/04 04:04:04;;;;;;;5.90;2.45;;;;;;;10.82;72.10;100081.42;1716192;83;20911;-63
2022/05/04 04:06:32;;;;;;;4.05;2.47;;;;;;;11.20;71.77;100084.13;1714875;82;20982;-63
2022/05/04 04:08:59;;;;;;;6.58;2.20;;;;;;;11.58;71.82;100078.95;1714729;81;21077;-62
2022/05/04 04:11:26;;;;;;;4.30;1.95;;;;;;;11.96;70.97;100078.53;1728182;81;20963;-62
2022/05/04 04:13:53;;;;;;;7.28;2.20;;;;;;;12.30;70.01;100076.44;1702255;82;21498;-63
2022/05/04 04:16:19;;;;;;;4.12;2.22;;;;;;;12.31;69.66;100080.74;1720066;82;20912;-62
2022/05/04 04:18:46;;;;;;;3.52;2.30;;;;;;;12.52;70.04;100088.49;1724496;81;20918;-62
2022/05/04 04:23:59;;;;;;;3.60;1.82;;;;;;;12.88;68.28;100080.99;1715466;81;21471;-63
2022/05/04 04:26:26;;;;;;;4.00;1.90;;;;;;;12.94;68.17;100088.10;1724140;82;20920;-62
2022/05/04 04:28:53;;;;;;;10.60;2.55;;;;;;;13.09;67.82;100082.52;1712640;82;21502;-62
2022/05/04 04:31:20;;;;;;;4.58;1.98;;;;;;;13.23;67.25;100088.36;1713187;82;20999;-63
2022/05/04 04:33:46;;;;;;;3.77;2.00;;;;;;;13.45;66.88;100093.36;1731092;81;21953;-63
2022/05/04 04:36:13;;;;;;;3.40;2.37;;;;;;;13.60;66.79;100095.14;1733040;81;20920;-62
2022/05/04 04:38:39;;;;;;;4.60;2.50;;;;;;;13.71;66.10;100088.48;1709201;82;21019;-63
2022/05/04 04:41:06;;;;;;;4.20;2.17;;;;;;;13.93;66.29;100085.06;1723564;82;21485;-63
2022/05/04 04:43:33;;;;;;;5.10;2.30;;;;;;;14.08;65.23;100082.88;1719947;82;20984;-63
2022/05/04 04:45:59;;;;;;;4.67;2.40;;;;;;;14.23;65.03;100093.48;1713905;81;21270;-64
2022/05/04 04:48:28;;;;;;;6.40;2.85;;;;;;;14.55;64.82;100089.88;1702304;82;20962;-64
2022/05/04 04:50:55;;;;;;;5.60;2.55;;;;;;;14.65;63.94;100087.58;1711241;81;20912;-64
2022/05/04 04:53:22;;;;;;;6.40;2.45;;;;;;;14.67;64.36;100090.09;1714953;82;21624;-64
2022/05/04 04:55:50;;;;;;;6.15;2.17;;;;;;;15.08;63.36;100089.44;1730955;81;20916;-63
2022/05/04 04:58:17;;;;;;;5.58;1.92;;;;;;;15.13;63.00;100090.02;1716811;81;21088;-63
2022/05/04 05:00:43;;;;;;;4.80;2.20;;;;;;;15.27;61.80;100092.66;1716446;82;21601;-64
2022/05/04 05:03:16;;;;;;;7.35;3.30;;;;;;;15.04;61.10;100091.86;1724029;81;28549;-64
2022/05/04 05:05:42;;;;;;;4.60;2.10;;;;;;;14.90;59.66;100094.86;1702858;82;21163;-64
2022/05/04 05:08:11;;;;;;;5.45;2.52;;;;;;;14.79;60.04;100094.66;1711176;82;20933;-64
2022/05/04 05:10:39;;;;;;;6.47;2.25;;;;;;;14.77;58.99;100093.89;1709100;81;21208;-63
2022/05/04 05:13:06;;;;;;;6.72;2.77;;;;;;;14.82;57.01;100099.72;1723535;81;20932;-64
2022/05/04 05:18:22;;;;;;;6.08;3.00;;;;;;;14.46;58.27;100106.61;1718084;81;21483;-63
2022/05/04 05:20:49;;;;;;;6.62;2.55;;;;;;;14.70;56.12;100110.94;1732764;81;21121;-63
2022/05/04 05:23:19;;;;;;;3.87;2.12;;;;;;;14.46;54.26;100106.14;1733074;81;21838;-63
2022/05/04 05:25:52;;;;;;;5.10;1.77;;;;;;;13.96;55.19;100105.89;1697148;81;20949;-64
2022/05/04 05:28:20;;;;;;;5.60;1.80;;;;;;;13.64;54.71;100116.38;1705361;82;20965;-64
2022/05/04 05:30:46;;;;;;;3.72;1.65;;;;;;;13.06;53.96;100110.20;1709527;81;20938;-63
2022/05/04 05:33:13;;;;;;;3.05;1.35;;;;;;;12.26;52.97;100124.62;1708124;81;20888;-63
2022/05/04 05:35:40;;;;;;;3.80;1.67;;;;;;;11.58;53.39;100115.57;1699753;82;21503;-63
2022/05/04 05:38:08;;;;;;;11.60;1.95;;;;;;;11.26;52.89;100120.47;1705179;81;21082;-61
2022/05/04 05:40:35;;;;;;;8.98;1.87;;;;;;;11.17;52.52;100119.11;1695029;83;21035;-62
2022/05/04 05:43:02;;;;;;;2.98;1.57;;;;;;;10.98;51.98;100117.73;1714114;82;21513;-63
2022/05/04 05:45:28;;;;;;;3.30;1.82;;;;;;;10.95;52.34;100123.09;1724561;82;20977;-63
2022/05/04 05:47:55;;;;;;;5.03;3.20;;;;;;;11.06;52.12;100117.84;1721419;81;21962;-64
2022/05/04 05:50:22;;;;;;;9.20;4.72;;;;;;;11.15;51.50;100125.31;1716199;82;20918;-66
2022/05/04 05:52:49;;;;;;;;;;;;;;;11.29;51.55;100128.18;1702866;82;21039;-63
2022/05/04 05:55:15;;;;;;;8.75;3.80;;;;;;;11.37;50.74;100126.08;1711250;82;20147;-63
2022/05/04 05:57:42;;;;;;;5.72;2.52;;;;;;;11.46;50.98;100123.98;1697135;82;21482;-62
2022/05/04 06:00:12;;;;;;;4.85;2.10;;;;;;;11.52;50.55;100123.70;1715098;81;21114;-62
2022/05/04 06:02:45;;;;;;;3.27;1.90;;;;;;;11.43;50.20;100127.11;1721323;81;21113;-64
2022/05/04 06:05:14;;;;;;;1.98;1.47;;;;;;;11.60;49.82;100121.59;1733530;81;20945;-65
2022/05/04 06:07:41;;;;;;;2.87;1.67;;;;;;;11.77;49.11;100129.52;1717512;82;20892;-62
2022/05/04 06:10:09;;;;;;;4.33;2.47;;;;;;;11.81;48.93;100124.98;1717955;81;21484;-63
2022/05/04 06:12:38;;;;;;;6.97;2.50;;;;;;;11.99;49.19;100125.48;1706728;81;21091;-64
2022/05/04 06:15:09;;;;;;;4.08;1.87;;;;;;;12.20;47.89;100127.54;1719012;81;20964;-67
2022/05/04 06:17:36;;;;;;;4.47;2.08;;;;;;;12.36;48.24;100129.44;1704574;81;21003;-64
2022/05/04 06:20:05;;;;;;;3.20;1.52;;;;;;;12.52;47.75;100126.00;1711386;81;21546;-64
2022/05/04 06:22:33;;;;;;;4.42;1.30;;;;;;;12.61;47.75;100129.94;1723512;81;21018;-64
2022/05/04 06:24:59;;;;;;;5.95;1.90;;;;;;;12.76;47.19;100133.56;1722271;81;21270;-63
2022/05/04 06:27:29;;;;;;;6.92;2.33;;;;;;;12.80;46.66;100129.01;1705615;81;21061;-63
2022/05/04 06:35:25;;;;;;;5.08;1.37;;;;;;;12.62;45.54;100138.17;1716924;82;20988;-63
2022/05/04 06:37:53;;;;;;;5.62;1.70;;;;;;;12.98;45.19;100141.20;1721320;82;27189;-64
2022/05/04 06:40:24;;;;;;;2.50;1.10;;;;;;;12.95;45.12;100142.67;1722622;82;21507;-63
2022/05/04 06:42:50;;;;;;;10.30;1.85;;;;;;;13.04;45.55;100150.53;1718876;81;21576;-63
2022/05/04 06:45:17;;;;;;;8.15;1.65;;;;;;;12.92;44.51;100146.76;1719339;81;20933;-63
2022/05/04 06:47:44;;;;;;;2.80;1.50;;;;;;;12.70;43.71;100146.50;1723200;81;21472;-63
2022/05/04 06:50:11;;;;;;;4.80;1.35;;;;;;;12.71;43.53;100139.48;1718092;82;21069;-63
2022/05/04 06:52:38;;;;;;;5.60;1.22;;;;;;;12.52;43.19;100152.66;1720827;82;20929;-64
2022/05/04 06:55:06;;;;;;;3.33;1.07;;;;;;;12.71;43.80;100144.27;1725300;81;21551;-64
2022/05/04 06:57:35;;;;;;;5.40;1.42;;;;;;;12.92;42.89;100146.76;1712730;82;20895;-64
2022/05/04 07:00:07;;;;;;;3.92;1.10;;;;;;;13.05;43.23;100154.40;1721575;81;20961;-64
2022/05/04 07:02:37;;;;;;;3.45;1.35;;;;;;;13.26;43.01;100143.30;1721475;82;21330;-64
2022/05/04 07:05:05;;;;;;;2.40;1.10;;;;;;;13.29;42.29;100144.91;1703872;82;21008;-64
2022/05/04 07:07:33;;;;;;;3.20;1.40;;;;;;;13.57;42.96;100154.34;1708166;81;20946;-64
2022/05/04 07:10:00;;;;;;;4.83;1.60;;;;;;;13.75;42.40;100150.35;1719065;82;20942;-64
2022/05/04 07:12:27;;;;;;;;;;;;;;;13.63;41.67;100152.70;1725446;81;20974;-63
2022/05/04 07:14:56;;;;;;;4.03;1.32;;;;;;;13.24;40.30;100152.13;1721850;82;21195;-64
2022/05/04 07:17:23;;;;;;;6.70;1.55;;;;;;;12.99;41.48;100155.99;1728375;81;20903;-64
2022/05/04 07:19:50;;;;;;;5.97;1.85;;;;;;;12.97;41.08;100155.25;1729411;81;21563;-64
2022/05/04 07:22:17;;;;;;;4.75;1.50;;;;;;;12.90;41.66;100153.84;1723288;81;20957;-63
2022/05/04 07:24:43;;;;;;;4.28;1.10;;;;;;;13.07;42.04;100154.30;1691288;83;21063;-64
2022/05/04 07:27:11;;;;;;;3.60;1.47;;;;;;;13.25;41.34;100150.76;1717133;82;21019;-63
2022/05/04 07:29:37;;;;;;;3.40;2.17;;;;;;;13.33;41.80;100151.69;1680202;83;21573;-63
2022/05/04 07:32:05;;;;;;;5.33;1.50;;;;;;;13.54;41.61;100151.88;1714739;81;20956;-64
2022/05/04 07:34:31;;;;;;;3.22;1.45;;;;;;;13.64;41.10;100155.73;1715610;82;21007;-63
2022/05/04 07:36:58;;;;;;;3.10;1.27;;;;;;;13.45;41.06;100156.31;1694065;82;21008;-62
2022/05/04 07:42:22;;;;;;;7.10;1.67;;;;;;;13.68;41.54;100154.25;1705569;81;21472;-62
2022/05/04 07:44:50;;;;;;;2.58;1.45;;;;;;;13.74;41.22;100155.23;1663092;83;21525;-64
2022/05/04 07:47:18;;;;;;;12.37;2.00;;;;;;;13.76;41.14;100152.06;1682445;83;21458;-63
2022/05/04 07:49:46;;;;;;;4.28;1.40;;;;;;;13.88;41.40;100155.33;1711599;81;21464;-63
2022/05/04 07:52:13;;;;;;;12.53;2.08;;;;;;;14.13;40.71;100145.66;1680047;83;21170;-63
2022/05/04 07:54:40;;;;;;;4.55;2.42;;;;;;;14.03;41.12;100150.58;1724302;81;20932;-63
2022/05/04 07:57:08;;;;;;;5.10;2.37;;;;;;;14.02;40.81;100153.27;1676646;83;20906;-64
2022/05/04 07:59:35;;;;;;;3.67;1.82;;;;;;;13.94;40.66;100154.99;1696731;82;20968;-63
2022/05/04 08:04:47;;;;;;;5.35;1.62;;;;;;;13.66;40.53;100153.84;1693881;82;21197;-63
2022/05/04 08:07:14;;;;;;;3.27;1.40;;;;;;;13.48;39.96;100156.14;1708267;82;21040;-63
2022/05/04 08:09:41;;;;;;;1.57;1.20;;;;;;;13.19;39.71;100159.78;1712040;82;20943;-63
2022/05/04 08:12:11;;;;;;;2.52;1.35;;;;;;;13.03;39.96;100158.86;1715774;82;21080;-63
2022/05/04 08:14:39;;;;;;;3.02;1.42;;;;;;;12.84;38.60;100162.02;1698697;82;20946;-63
2022/05/04 08:17:07;;;;;;;5.72;3.02;;;;;;;12.66;39.47;100172.48;1718228;82;21848;-63
2022/05/04 08:19:34;;;;;;;6.17;1.47;;;;;;;12.58;39.76;100165.92;1685392;83;20891;-64
2022/05/04 08:22:00;;;;;;;;;;;;;;;12.61;38.69;100175.78;1652513;83;21022;-63
2022/05/04 08:24:28;;;;;;;2.90;1.40;;;;;;;12.57;38.88;100177.30;1684838;83;20099;-63
2022/05/04 08:26:55;;;;;;;5.60;1.12;;;;;;;12.68;38.81;100179.78;1711554;82;21009;-63
2022/05/04 08:29:24;;;;;;;5.28;1.32;;;;;;;12.81;38.73;100175.27;1712823;82;21968;-63
2022/05/04 08:31:50;;;;;;;5.58;1.45;;;;;;;12.95;38.81;100176.75;1723250;82;20932;-63
2022/05/04 08:34:17;;;;;;;4.83;1.50;;;;;;;13.12;38.89;100178.05;1744096;81;20935;-63
2022/05/04 08:36:43;;;;;;;4.47;1.30;;;;;;;13.15;38.23;100180.98;1714556;82;21037;-63
2022/05/04 08:39:11;;;;;;;1.82;1.10;;;;;;;13.01;38.03;100176.44;1738167;82;21065;-64
2022/05/04 08:41:41;;;;;;;5.00;1.20;;;;;;;13.01;37.97;100172.50;1742506;81;21399;-62
2022/05/04 08:44:10;;;;;;;3.65;1.40;;;;;;;12.79;37.30;100174.49;1703394;83;20996;-62
2022/05/04 08:46:41;;;;;;;9.80;2.02;;;;;;;12.70;37.97;100176.64;1701944;83;21530;-62
2022/05/04 08:49:11;;;;;;;3.12;1.30;;;;;;;12.84;37.90;100171.19;1691726;83;20897;-62
2022/05/04 08:51:38;;;;;;;4.28;1.87;;;;;;;12.86;37.09;100170.66;1717316;83;21020;-62
2022/05/04 08:54:06;;;;;;;2.98;1.40;;;;;;;12.71;37.54;100174.86;1716202;82;21960;-62
2022/05/04 08:56:35;;;;;;;3.70;1.45;;;;;;;12.81;37.84;100176.58;1713503;82;20922;-63
2022/05/04 08:59:03;;;;;;;4.28;1.25;;;;;;;12.80;37.17;100181.42;1715420;81;20981;-63
2022/05/04 09:01:33;;;;;;;4.17;1.47;;;;;;;12.74;37.51;100186.06;1718637;82;20931;-62
2022/05/04 09:04:00;;;;;;;4.12;1.12;;;;;;;12.97;37.79;100184.08;1692896;82;20940;-61
2022/05/04 09:06:32;;;;;;;4.22;1.10;;;;;;;13.15;37.53;100178.36;1730392;81;21078;-60
2022/05/04 09:09:14;;;;;;;4.58;1.50;;;;;;;13.06;37.39;100181.45;1728263;82;20904;-63
2022/05/04 09:11:40;;;;;;;6.50;1.30;;;;;;;13.20;37.60;100190.78;1721589;81;21966;-64
2022/05/04 09:14:14;;;;;;;3.42;1.50;;;;;;;13.13;37.35;100184.98;1710077;82;20972;-63
2022/05/04 09:16:42;;;;;;;7.17;2.40;;;;;;;13.02;37.05;100184.67;1710791;81;21477;-65
2022/05/04 09:19:13;;;;;;;6.45;2.77;;;;;;;12.91;36.89;100179.11;1719376;81;21261;-63
2022/05/04 09:21:40;;;;;;;5.70;2.98;;;;;;;12.82;36.63;100170.41;1729647;81;20979;-65
2022/05/04 09:24:08;;;;;;;8.95;2.67;;;;;;;12.65;36.63;100177.78;1704686;81;21008;-61
2022/05/04 09:26:41;;;;;;;5.90;1.30;;;;;;;12.45;36.45;100174.81;1692986;83;21059;-63
2022/05/04 09:29:13;;;;;;;7.47;2.55;;;;;;;12.39;36.93;100172.50;1723599;82;20937;-63
2022/05/04 09:31:47;;;;;;;2.37;1.30;;;;;;;12.47;36.64;100172.98;1725014;81;21106;-63
2022/05/04 09:34:14;;;;;;;2.80;1.57;;;;;;;12.47;36.15;100165.13;1676790;83;21172;-64
2022/05/04 09:45:16;;;;;;;3.50;1.40;;;;;;;12.57;36.29;100167.67;1720016;82;21270;-63
2022/05/04 09:47:46;;;;;;;4.28;1.57;;;;;;;12.40;36.56;100163.70;1721192;82;20886;-63
2022/05/04 09:50:16;;;;;;;3.80;1.10;;;;;;;12.41;36.81;100161.50;1726855;81;20953;-63
2022/05/04 09:52:49;;;;;;;8.45;1.60;;;;;;;12.29;36.05;100165.09;1693122;82;20966;-63
2022/05/04 09:55:25;;;;;;;4.50;1.30;;;;;;;12.17;36.76;100160.41;1706324;82;21065;-62
2022/05/04 09:57:54;;;;;;;3.00;1.30;;;;;;;12.30;36.88;100160.23;1697036;82;22059;-62
2022/05/04 10:00:27;;;;;;;3.95;1.22;;;;;;;12.51;36.94;100162.73;1722280;81;21505;-62
2022/05/04 10:02:57;;;;;;;3.70;1.52;;;;;;;12.64;37.25;100153.36;1699849;82;21053;-63
2022/05/04 10:05:25;;;;;;;2.37;1.02;;;;;;;12.78;37.00;100155.30;1724920;81;21051;-64
2022/05/04 10:07:52;;;;;;;6.50;1.07;;;;;;;12.77;36.49;100148.34;1712510;81;20966;-64
2022/05/04 10:10:29;;;;;;;;;;;;;;;12.66;36.53;100155.45;1722830;82;21020;-63
2022/05/04 10:13:09;;;;;;;5.47;3.65;;;;;;;12.54;36.50;100155.56;1698546;83;20140;-63
2022/05/04 10:15:38;;;;;;;6.25;2.08;;;;;;;12.81;37.45;100149.07;1717695;81;20893;-63
2022/05/04 10:18:16;;;;;;;3.75;1.55;;;;;;;13.24;37.59;100154.75;1724434;81;20992;-64
2022/05/04 10:20:49;;;;;;;3.25;1.07;;;;;;;13.54;36.81;100151.88;1681814;83;21930;-63
2022/05/04 10:23:24;;;;;;;1.92;1.02;;;;;;;13.54;36.49;100161.06;1685415;83;22682;-63
2022/05/04 10:25:52;;;;;;;2.67;1.15;;;;;;;13.54;36.27;100146.63;1704927;82;21085;-63
2022/05/04 10:28:19;;;;;;;3.72;0.95;;;;;;;13.40;35.54;100151.77;1693978;82;21115;-64
2022/05/04 10:30:55;;;;;;;2.60;1.00;;;;;;;13.26;35.32;100156.41;1715188;81;21014;-64
2022/05/04 10:33:31;;;;;;;1.98;0.90;;;;;;;13.24;35.49;100148.20;1703859;82;20985;-63
2022/05/04 10:36:19;;;;;;;1.22;0.70;;;;;;;13.44;35.47;100146.72;1715103;82;22007;-63
2022/05/04 10:38:53;;;;;;;1.77;1.00;;;;;;;13.48;35.23;100144.34;1730657;82;21580;-63
2022/05/04 10:41:41;;;;;;;5.87;2.62;;;;;;;13.49;35.64;100143.41;1708994;82;20972;-65
2022/05/04 10:44:11;;;;;;;1.45;0.72;;;;;;;13.55;36.00;100139.61;1707286;82;20975;-66
2022/05/04 10:46:43;;;;;;;3.45;0.60;;;;;;;13.46;35.25;100140.94;1710240;81;20930;-65
2022/05/04 10:49:16;;;;;;;2.12;1.00;;;;;;;13.51;35.37;100138.93;1686498;82;21909;-63
2022/05/04 10:51:40;;;;;;;3.02;0.90;;;;;;;13.54;35.78;100137.45;1718221;81;20883;-64
2022/05/04 10:54:21;;;;;;;1.57;0.90;;;;;;;13.63;35.89;100127.77;1724468;81;20886;-63
2022/05/04 10:56:51;;;;;;;0.98;0.60;;;;;;;13.75;35.39;100135.91;1722663;81;21594;-61
2022/05/04 10:59:26;;;;;;;2.42;1.00;;;;;;;13.60;35.21;100134.50;1721724;82;21003;-63
2022/05/04 11:02:04;;;;;;;5.50;1.00;;;;;;;13.57;35.22;100132.04;1655019;84;21159;-62
2022/05/04 11:04:32;;;;;;;3.75;0.90;;;;;;;13.40;35.16;100136.02;1721577;81;20941;-63
2022/05/04 11:07:07;;;;;;;2.33;1.05;;;;;;;13.41;34.98;100137.70;1646769;84;20951;-62
2022/05/04 11:09:39;;;;;;;3.62;0.70;;;;;;;13.34;34.99;100136.35;1695392;82;21512;-62
2022/05/04 11:12:10;;;;;;;4.28;1.77;;;;;;;13.37;35.58;100137.50;1719275;82;21629;-63
2022/05/04 11:14:39;;;;;;;1.65;1.07;;;;;;;13.61;35.82;100138.84;1717860;81;20912;-63
2022/05/04 11:17:13;;;;;;;5.40;1.15;;;;;;;13.78;35.51;100131.38;1688362;83;20926;-62
2022/05/04 11:19:50;;;;;;;5.87;1.30;;;;;;;13.83;35.53;100129.79;1710940;81;21043;-63
2022/05/04 11:22:18;;;;;;;1.60;0.75;;;;;;;13.75;35.04;100132.86;1720801;82;21471;-63
2022/05/04 11:24:45;;;;;;;4.17;1.27;;;;;;;13.69;35.17;100132.31;1724626;82;21455;-62
2022/05/04 11:27:16;;;;;;;2.30;0.88;;;;;;;13.60;34.78;100142.37;1725555;82;21091;-62
2022/05/04 11:29:44;;;;;;;1.62;1.32;;;;;;;13.48;34.82;100129.91;1717870;82;21463;-62
2022/05/04 11:32:19;;;;;;;1.60;0.90;;;;;;;13.31;34.67;100131.27;1730638;81;20966;-62
2022/05/04 11:34:41;;;;;;;4.83;0.90;;;;;;;13.18;34.96;100127.92;1723133;82;20951;-63
2022/05/04 11:37:14;;;;;;;2.60;1.30;;;;;;;13.24;35.56;100129.84;1706186;82;21070;-63
2022/05/04 11:39:42;;;;;;;3.12;0.85;;;;;;;13.38;35.32;100136.56;1725323;81;21271;-62
2022/05/04 11:42:09;;;;;;;7.28;1.20;;;;;;;13.30;35.26;100136.11;1723642;82;20949;-62
2022/05/04 11:44:38;;;;;;;3.80;1.10;;;;;;;13.25;35.30;100128.91;1726621;83;20926;-62
2022/05/04 11:47:07;;;;;;;1.55;1.00;;;;;;;13.28;35.14;100131.43;1682867;83;21916;-62
2022/05/04 11:49:35;;;;;;;4.08;1.00;;;;;;;13.32;35.37;100130.33;1713302;81;21042;-62
2022/05/04 11:52:04;;;;;;;1.92;0.88;;;;;;;13.33;35.11;100134.63;1711478;82;21088;-62
2022/05/04 11:54:31;;;;;;;3.17;0.90;;;;;;;13.37;35.47;100125.70;1720448;82;20958;-63
2022/05/04 11:56:57;;;;;;;4.17;1.00;;;;;;;13.36;35.04;100122.67;1714477;81;21471;-62
2022/05/04 11:59:31;;;;;;;6.85;1.45;;;;;;;13.27;35.28;100120.53;1716075;82;21539;-63
2022/05/04 12:02:00;;;;;;;3.40;0.68;;;;;;;13.29;35.35;100123.94;1712954;82;20930;-62